Time;durP1;ratioP1;P1;durP2;ratioP2;P2;SDS_P1;SDS_P2;PMS_P1;PMS_P2;Temp;Humidity;BMP_temperature;BMP_pressure;BME280_temperature;BME280_humidity;BME280_pressure;Samples;Min_cycle;Max_cycle;Signal;HPM_P1;HPM_P2
2022/08/14 00:01:38;;;;;;;;;;;;;;;20.34;100.00;101117.66;5042262;28;19971;-76
2022/08/14 00:04:04;;;;;;;;;;;;;;;20.28;100.00;101118.56;5028087;28;19920;-76
2022/08/14 00:06:29;;;;;;;;;;;;;;;20.21;100.00;101129.44;5027172;28;19909;-75
2022/08/14 00:08:55;;;;;;;;;;;;;;;20.11;100.00;101129.91;5042503;28;19955;-75
2022/08/14 00:11:20;;;;;;;;;;;;;;;20.03;100.00;101132.84;5035569;28;20451;-75
2022/08/14 00:13:47;;;;;;;;;;;;;;;19.98;100.00;101140.81;5042417;28;19959;-76
2022/08/14 00:16:13;;;;;;;;;;;;;;;19.90;100.00;101147.31;5034853;28;19909;-75
2022/08/14 00:18:38;;;;;;;;;;;;;;;19.87;100.00;101138.75;5027801;28;19974;-75
2022/08/14 00:21:03;;;;;;;;;;;;;;;19.86;100.00;101108.13;5027417;28;20449;-76
2022/08/14 00:23:29;;;;;;;;;;;;;;;19.88;100.00;101107.88;5027372;28;19928;-75
2022/08/14 00:25:56;;;;;;;;;;;;;;;19.92;100.00;101098.28;5042350;28;19939;-76
2022/08/14 00:28:25;;;;;;;;;;;;;;;19.98;100.00;101092.03;5035346;28;20289;-75
2022/08/14 00:30:51;;;;;;;;;;;;;;;19.99;100.00;101075.56;5027053;28;19998;-76
2022/08/14 00:33:16;;;;;;;;;;;;;;;19.96;100.00;101083.28;5042461;28;19960;-76
2022/08/14 00:35:41;;;;;;;;;;;;;;;19.94;100.00;101082.66;5026330;28;19996;-76
2022/08/14 00:38:06;;;;;;;;;;;;;;;19.90;100.00;101092.25;5026311;28;19916;-75
2022/08/14 00:40:32;;;;;;;;;;;;;;;19.83;100.00;101095.03;5026879;28;19909;-75
2022/08/14 00:42:57;;;;;;;;;;;;;;;19.77;100.00;101083.16;5041739;28;20289;-76
2022/08/14 00:45:22;;;;;;;;;;;;;;;19.73;100.00;101095.44;5029759;28;20358;-76
2022/08/14 00:47:48;;;;;;;;;;;;;;;19.69;100.00;101096.09;5032389;28;20397;-75
2022/08/14 00:50:16;;;;;;;;;;;;;;;19.61;100.00;101087.13;5025905;28;20327;-76
2022/08/14 00:52:42;;;;;;;;;;;;;;;19.60;100.00;101071.13;5025928;28;19917;-76
2022/08/14 00:55:08;;;;;;;;;;;;;;;19.63;100.00;101067.97;5034846;28;19908;-75
2022/08/14 00:57:35;;;;;;;;;;;;;;;19.61;100.00;101045.69;5024204;28;19924;-76
2022/08/14 01:00:00;;;;;;;;;;;;;;;19.51;100.00;101051.56;5025340;28;20247;-75
2022/08/14 01:02:26;;;;;;;;;;;;;;;19.51;100.00;101043.44;5026164;28;19924;-75
2022/08/14 01:04:53;;;;;;;;;;;;;;;19.48;100.00;101033.03;5033818;28;20009;-75
2022/08/14 01:07:20;;;;;;;;;;;;;;;19.50;100.00;101032.81;5041961;28;19994;-76
2022/08/14 01:09:49;;;;;;;;;;;;;;;19.53;100.00;101018.88;5025164;28;20429;-76
2022/08/14 01:12:15;;;;;;;;;;;;;;;19.52;100.00;101011.75;5027248;28;20015;-75
2022/08/14 01:14:41;;;;;;;;;;;;;;;19.53;100.00;101022.41;5025795;28;19912;-76
2022/08/14 01:17:06;;;;;;;;;;;;;;;19.49;100.00;100999.50;5027052;28;20373;-75
2022/08/14 01:22:17;;;;;;;;;;;;;;;19.49;100.00;100991.38;5042883;28;19924;-75
2022/08/14 01:24:42;;;;;;;;;;;;;;;19.51;100.00;100974.91;5025401;28;19909;-75
2022/08/14 01:27:12;;;;;;;;;;;;;;;19.47;100.00;101001.59;5024919;28;19920;-75
2022/08/14 01:29:38;;;;;;;;;;;;;;;19.45;100.00;101005.56;5024895;28;19938;-75
2022/08/14 01:32:04;;;;;;;;;;;;;;;19.44;100.00;101004.72;5026596;28;20000;-75
2022/08/14 01:34:31;;;;;;;;;;;;;;;19.42;100.00;100984.34;5023496;28;19913;-75
2022/08/14 01:36:57;;;;;;;;;;;;;;;19.45;100.00;100984.72;5024346;28;19956;-76
2022/08/14 01:39:22;;;;;;;;;;;;;;;19.35;100.00;100998.72;5025237;28;19947;-75
2022/08/14 01:41:55;;;;;;;;;;;;;;;19.37;100.00;100998.50;5024807;28;19955;-75
2022/08/14 01:44:22;;;;;;;;;;;;;;;19.33;100.00;101017.03;5009193;28;20128;-75
2022/08/14 01:46:49;;;;;;;;;;;;;;;19.19;100.00;101005.44;5026508;28;20389;-75
2022/08/14 01:49:14;;;;;;;;;;;;;;;19.14;100.00;101026.06;5026889;28;20400;-76
2022/08/14 01:51:40;;;;;;;;;;;;;;;19.15;100.00;101019.59;5026143;28;19913;-75
2022/08/14 01:54:11;;;;;;;;;;;;;;;19.23;100.00;101002.31;5026621;28;20006;-76
2022/08/14 01:56:39;;;;;;;;;;;;;;;19.29;100.00;100991.47;5023330;28;20399;-76
2022/08/14 01:59:05;;;;;;;;;;;;;;;19.34;100.00;100972.69;5045144;28;20324;-76
2022/08/14 02:01:30;;;;;;;;;;;;;;;19.36;100.00;100959.78;5026134;28;19921;-75
2022/08/14 02:03:56;;;;;;;;;;;;;;;19.31;100.00;100978.53;5026830;28;20326;-75
2022/08/14 02:06:21;;;;;;;;;;;;;;;19.26;100.00;100991.88;5041544;28;19917;-75
2022/08/14 02:08:47;;;;;;;;;;;;;;;19.26;100.00;101007.28;5026013;28;19951;-75
2022/08/14 02:11:21;;;;;;;;;;;;;;;19.30;100.00;100998.53;5024160;28;19913;-75
2022/08/14 02:14:05;;;;;;;;;;;;;;;19.32;100.00;101001.84;5024109;28;19940;-75
2022/08/14 02:16:35;;;;;;;;;;;;;;;19.40;100.00;101014.31;5029133;28;19921;-75
2022/08/14 02:19:02;;;;;;;;;;;;;;;19.45;100.00;101013.66;5028740;28;19913;-76
2022/08/14 02:21:30;;;;;;;;;;;;;;;19.45;100.00;101028.03;5012237;28;19913;-75
2022/08/14 02:23:56;;;;;;;;;;;;;;;19.42;100.00;101033.06;5030076;28;19917;-75
2022/08/14 02:26:22;;;;;;;;;;;;;;;19.43;100.00;101023.88;5030271;28;19913;-75
2022/08/14 02:28:49;;;;;;;;;;;;;;;19.37;100.00;101022.88;5028583;28;19913;-75
2022/08/14 02:31:15;;;;;;;;;;;;;;;19.29;100.00;101028.50;5029871;28;19955;-75
2022/08/14 02:33:41;;;;;;;;;;;;;;;19.31;100.00;101021.84;5029916;28;19967;-75
2022/08/14 02:36:07;;;;;;;;;;;;;;;19.31;100.00;101019.13;5030129;28;19917;-76
2022/08/14 02:38:33;;;;;;;;;;;;;;;19.26;100.00;101012.72;5020757;28;19917;-75
2022/08/14 02:40:59;;;;;;;;;;;;;;;19.22;100.00;101033.94;5029142;28;19932;-75
2022/08/14 02:43:28;;;;;;;;;;;;;;;19.27;100.00;101047.69;5029910;28;19921;-75
2022/08/14 02:45:53;;;;;;;;;;;;;;;19.30;100.00;101046.44;5029886;28;19974;-75
2022/08/14 02:48:18;;;;;;;;;;;;;;;19.28;100.00;101059.34;5029740;28;19913;-75
2022/08/14 02:50:44;;;;;;;;;;;;;;;19.20;100.00;101063.13;5033015;28;20309;-75
2022/08/14 02:53:10;;;;;;;;;;;;;;;19.17;100.00;101058.09;5047392;28;19912;-75
2022/08/14 02:55:39;;;;;;;;;;;;;;;19.15;100.00;101061.03;5029453;28;20053;-75
2022/08/14 02:58:04;;;;;;;;;;;;;;;19.10;100.00;101062.69;5029446;28;20092;-75
2022/08/14 03:00:31;;;;;;;;;;;;;;;19.01;100.00;101045.03;5029189;28;19909;-75
2022/08/14 03:02:57;;;;;;;;;;;;;;;19.02;100.00;101049.41;5029029;28;20331;-76
2022/08/14 03:05:23;;;;;;;;;;;;;;;19.01;100.00;101045.03;5029682;28;19916;-76
2022/08/14 03:07:48;;;;;;;;;;;;;;;19.03;100.00;101042.94;5027957;28;19963;-75
2022/08/14 03:10:13;;;;;;;;;;;;;;;18.99;100.00;101037.16;5027959;28;20418;-76
2022/08/14 03:12:39;;;;;;;;;;;;;;;18.93;100.00;101038.78;5043741;28;19913;-76
2022/08/14 03:15:09;;;;;;;;;;;;;;;18.88;100.00;101038.59;5027777;28;19966;-75
2022/08/14 03:17:34;;;;;;;;;;;;;;;18.83;100.00;101027.59;5040085;28;19944;-76
2022/08/14 03:20:00;;;;;;;;;;;;;;;18.78;100.00;101027.38;5024814;28;20429;-77
2022/08/14 03:22:26;;;;;;;;;;;;;;;18.69;100.00;101034.03;5028042;28;19917;-74
2022/08/14 03:24:51;;;;;;;;;;;;;;;18.66;100.00;101039.81;5028929;28;19913;-76
2022/08/14 03:27:17;;;;;;;;;;;;;;;18.61;100.00;101026.09;5042858;28;20403;-75
2022/08/14 03:29:42;;;;;;;;;;;;;;;18.56;100.00;101040.25;5027288;28;19909;-76
2022/08/14 03:32:07;;;;;;;;;;;;;;;18.58;100.00;101040.06;5027606;28;19927;-76
2022/08/14 03:34:33;;;;;;;;;;;;;;;18.55;100.00;101041.31;5027411;28;19909;-76
2022/08/14 03:36:58;;;;;;;;;;;;;;;18.52;100.00;101039.03;5027290;28;20285;-76
2022/08/14 03:39:24;;;;;;;;;;;;;;;18.51;100.00;101040.88;5028713;28;20187;-76
2022/08/14 03:41:51;;;;;;;;;;;;;;;18.48;100.00;101033.19;5042880;28;20012;-76
2022/08/14 03:44:17;;;;;;;;;;;;;;;18.58;100.00;101042.75;5029061;28;19913;-75
2022/08/14 03:46:42;;;;;;;;;;;;;;;18.65;100.00;101038.19;5042905;28;19913;-76
2022/08/14 03:49:08;;;;;;;;;;;;;;;18.61;100.00;101042.34;5027444;28;19963;-76
2022/08/14 03:51:34;;;;;;;;;;;;;;;18.62;100.00;101055.66;5026914;28;19955;-76
2022/08/14 03:54:02;;;;;;;;;;;;;;;18.67;100.00;101044.22;5042843;28;19941;-76
2022/08/14 03:56:28;;;;;;;;;;;;;;;18.65;100.00;101038.19;5056109;22;19920;-71
2022/08/14 03:58:55;;;;;;;;;;;;;;;18.72;100.00;101039.00;5044859;28;19912;-71
2022/08/14 04:01:22;;;;;;;;;;;;;;;18.75;100.00;101035.88;5044062;28;19978;-72
2022/08/14 04:03:48;;;;;;;;;;;;;;;18.74;100.00;101040.47;5028581;28;19909;-72
2022/08/14 04:06:13;;;;;;;;;;;;;;;18.76;100.00;101051.94;5044530;28;19917;-72
2022/08/14 04:08:39;;;;;;;;;;;;;;;18.81;100.00;101042.38;5046417;28;20333;-72
2022/08/14 04:11:05;;;;;;;;;;;;;;;18.87;100.00;101047.78;5045558;28;19916;-72
2022/08/14 04:13:32;;;;;;;;;;;;;;;18.79;100.00;101034.44;5045974;28;20025;-72
2022/08/14 04:15:57;;;;;;;;;;;;;;;18.81;100.00;101036.97;5045787;28;20373;-71
2022/08/14 04:18:23;;;;;;;;;;;;;;;18.75;100.00;101038.56;5044253;28;19917;-72
2022/08/14 04:20:48;;;;;;;;;;;;;;;18.83;100.00;101045.69;5045416;28;19913;-72
2022/08/14 04:23:15;;;;;;;;;;;;;;;18.87;100.00;101036.09;5045365;28;19908;-72
2022/08/14 04:25:41;;;;;;;;;;;;;;;18.86;100.00;101024.44;5046219;28;19970;-72
2022/08/14 04:28:06;;;;;;;;;;;;;;;18.82;100.00;101025.91;5045684;28;19913;-72
2022/08/14 04:30:36;;;;;;;;;;;;;;;18.91;100.00;101024.66;5043810;28;19913;-72
2022/08/14 04:33:01;;;;;;;;;;;;;;;18.98;100.00;101017.34;5045653;28;19959;-73
2022/08/14 04:35:26;;;;;;;;;;;;;;;19.04;100.00;101018.41;5045016;28;19954;-72
2022/08/14 04:43:34;;;;;;;;;;;;;;;19.24;100.00;100982.31;5043947;28;20276;-72
2022/08/14 04:46:00;;;;;;;;;;;;;;;19.24;100.00;100987.72;5041532;28;19919;-72
2022/08/14 04:48:26;;;;;;;;;;;;;;;19.24;100.00;100988.53;5044968;28;19946;-72
2022/08/14 04:50:51;;;;;;;;;;;;;;;19.37;100.00;100991.22;5044711;28;19959;-72
2022/08/14 04:53:18;;;;;;;;;;;;;;;19.43;100.00;100981.38;5044538;28;20369;-72
2022/08/14 04:55:47;;;;;;;;;;;;;;;19.47;100.00;100989.94;5037004;28;19974;-72
2022/08/14 04:58:38;;;;;;;;;;;;;;;19.57;100.00;100985.72;5026805;28;19912;-72
2022/08/14 05:01:05;;;;;;;;;;;;;;;19.87;100.00;100995.16;5041166;28;19916;-72
2022/08/14 05:03:33;;;;;;;;;;;;;;;20.34;100.00;100988.34;5042985;28;19916;-71
2022/08/14 05:05:59;;;;;;;;;;;;;;;20.39;100.00;100958.72;5027429;28;19920;-72
2022/08/14 05:08:24;;;;;;;;;;;;;;;20.26;100.00;100958.00;5035309;28;20286;-72
2022/08/14 05:10:51;;;;;;;;;;;;;;;20.29;100.00;100962.97;5043592;28;19916;-72
2022/08/14 05:13:17;;;;;;;;;;;;;;;20.48;100.00;100971.97;5043413;28;20381;-72
2022/08/14 05:15:43;;;;;;;;;;;;;;;20.99;100.00;100951.88;5045247;28;19957;-72
2022/08/14 05:18:14;;;;;;;;;;;;;;;21.57;100.00;100926.91;5044063;28;19954;-72
2022/08/14 05:20:42;;;;;;;;;;;;;;;22.04;100.00;100866.41;5043600;28;19948;-72
2022/08/14 05:23:08;;;;;;;;;;;;;;;22.61;100.00;100866.63;5043154;28;19909;-72
2022/08/14 05:25:34;;;;;;;;;;;;;;;23.17;100.00;100787.97;5021710;28;19916;-73
2022/08/14 05:28:26;;;;;;;;;;;;;;;23.69;100.00;100746.06;5036416;28;19919;-73
2022/08/14 05:30:52;;;;;;;;;;;;;;;24.06;100.00;100699.16;5022883;28;19960;-72
2022/08/14 05:33:19;;;;;;;;;;;;;;;24.37;100.00;100619.34;5044514;28;19912;-72
2022/08/14 05:35:45;;;;;;;;;;;;;;;24.71;100.00;100671.00;5039961;28;20270;-73
2022/08/14 05:38:12;;;;;;;;;;;;;;;25.34;100.00;100656.81;5041493;28;19908;-73
2022/08/14 05:40:39;;;;;;;;;;;;;;;24.20;100.00;100633.06;5042734;28;19948;-72
2022/08/14 05:43:04;;;;;;;;;;;;;;;23.96;100.00;100673.41;5026750;28;19908;-72
2022/08/14 05:45:30;;;;;;;;;;;;;;;24.80;100.00;100754.09;5036354;28;19912;-73
2022/08/14 05:47:55;;;;;;;;;;;;;;;25.56;100.00;100690.28;5036495;28;20754;-73
2022/08/14 05:50:20;;;;;;;;;;;;;;;24.20;100.00;100581.22;5034919;28;20034;-73
2022/08/14 05:52:49;;;;;;;;;;;;;;;24.37;100.00;100703.94;5035282;28;19919;-73
2022/08/14 05:55:15;;;;;;;;;;;;;;;23.51;100.00;100703.56;5041958;28;19913;-73
2022/08/14 05:57:48;;;;;;;;;;;;;;;23.29;100.00;100845.13;5032082;28;19944;-73
2022/08/14 06:00:14;;;;;;;;;;;;;;;23.77;100.00;100868.34;5039986;28;19923;-73
2022/08/14 06:02:39;;;;;;;;;;;;;;;24.19;100.00;100819.63;5014979;28;19913;-73
2022/08/14 06:05:04;;;;;;;;;;;;;;;24.11;100.00;100783.75;5040409;28;19912;-72
2022/08/14 06:07:29;;;;;;;;;;;;;;;25.14;100.00;100763.97;5044127;28;20051;-73
2022/08/14 06:09:55;;;;;;;;;;;;;;;24.72;100.00;100710.84;5043564;28;20329;-73
2022/08/14 06:12:20;;;;;;;;;;;;;;;24.62;100.00;100792.63;5044147;28;20376;-73
2022/08/14 06:14:45;;;;;;;;;;;;;;;24.76;100.00;100761.13;5043189;28;19917;-73
2022/08/14 06:17:11;;;;;;;;;;;;;;;24.77;100.00;100761.94;5043208;28;19978;-72
2022/08/14 06:19:36;;;;;;;;;;;;;;;25.02;100.00;100764.13;5042266;28;20007;-73
2022/08/14 06:22:01;;;;;;;;;;;;;;;25.23;100.00;100847.13;5044045;28;19908;-73
2022/08/14 06:24:27;;;;;;;;;;;;;;;25.65;100.00;100803.50;5042140;28;20288;-73
2022/08/14 06:26:52;;;;;;;;;;;;;;;24.18;100.00;100694.41;5043511;28;19970;-73
2022/08/14 06:29:17;;;;;;;;;;;;;;;25.14;100.00;100844.00;5043269;28;19955;-73
2022/08/14 06:31:43;;;;;;;;;;;;;;;25.44;100.00;100757.97;5038222;28;19913;-73
2022/08/14 06:34:08;;;;;;;;;;;;;;;24.91;100.00;100760.50;5017061;28;20419;-73
2022/08/14 06:36:37;;;;;;;;;;;;;;;24.69;100.00;100842.41;5028936;28;19924;-73
2022/08/14 06:39:03;;;;;;;;;;;;;;;24.75;100.00;100887.00;5029424;28;20335;-73
2022/08/14 06:41:28;;;;;;;;;;;;;;;24.81;100.00;100866.84;5035542;28;19908;-73
2022/08/14 06:43:53;;;;;;;;;;;;;;;24.95;100.00;100861.81;5036934;28;19913;-73
2022/08/14 06:46:18;;;;;;;;;;;;;;;26.32;100.00;100850.50;5033905;28;20500;-73
2022/08/14 06:48:44;;;;;;;;;;;;;;;25.57;100.00;100738.41;5043098;28;19962;-73
2022/08/14 06:51:10;;;;;;;;;;;;;;;25.74;94.89;100636.25;5033161;28;19909;-73
2022/08/14 06:53:35;;;;;;;;;;;;;;;24.61;100.00;100698.22;5026084;28;19913;-73
2022/08/14 06:56:00;;;;;;;;;;;;;;;24.50;100.00;100702.72;5032542;28;19916;-73
2022/08/14 06:58:26;;;;;;;;;;;;;;;24.38;100.00;100710.19;5012911;28;20285;-73
2022/08/14 07:06:29;;;;;;;;;;;;;;;24.25;100.00;100858.69;5025522;28;20362;-73
2022/08/14 07:08:55;;;;;;;;;;;;;;;24.12;100.00;100831.81;5017225;28;19925;-73
2022/08/14 07:11:21;;;;;;;;;;;;;;;24.29;100.00;100869.94;5017810;28;19971;-73
2022/08/14 07:13:46;;;;;;;;;;;;;;;24.07;100.00;100839.88;5024844;28;19912;-73
2022/08/14 07:16:12;;;;;;;;;;;;;;;24.08;100.00;100898.81;5037495;28;19924;-73
2022/08/14 07:18:37;;;;;;;;;;;;;;;24.24;100.00;100846.16;5017284;28;19909;-73
2022/08/14 07:21:04;;;;;;;;;;;;;;;23.90;100.00;100900.69;5015519;28;19967;-73
2022/08/14 07:23:29;;;;;;;;;;;;;;;24.01;100.00;100880.72;5016050;28;19917;-73
2022/08/14 07:25:56;;;;;;;;;;;;;;;24.40;100.00;100910.78;5021291;28;20292;-73
2022/08/14 07:28:24;;;;;;;;;;;;;;;24.54;100.00;100842.22;5043757;28;19916;-73
2022/08/14 07:30:51;;;;;;;;;;;;;;;24.79;100.00;100838.97;5043567;28;19913;-73
2022/08/14 07:33:16;;;;;;;;;;;;;;;25.03;100.00;100749.41;5044551;28;19913;-74
2022/08/14 07:35:41;;;;;;;;;;;;;;;25.15;100.00;100751.97;5043661;28;20435;-73
2022/08/14 07:38:07;;;;;;;;;;;;;;;26.16;100.00;100780.34;5043868;28;20291;-73
2022/08/14 07:40:33;;;;;;;;;;;;;;;26.02;91.21;100555.72;5030727;28;19913;-73
2022/08/14 07:42:59;;;;;;;;;;;;;;;24.57;100.00;100741.56;5046660;28;20335;-73
2022/08/14 07:45:24;;;;;;;;;;;;;;;24.49;100.00;100784.84;5044705;28;19928;-73
2022/08/14 07:47:50;;;;;;;;;;;;;;;25.32;100.00;100847.50;5046242;28;19916;-73
2022/08/14 07:50:16;;;;;;;;;;;;;;;25.53;100.00;100722.78;5044532;28;19948;-73
2022/08/14 07:52:42;;;;;;;;;;;;;;;25.15;100.00;100670.03;5046884;28;19913;-74
2022/08/14 07:55:08;;;;;;;;;;;;;;;24.97;100.00;100736.78;5045631;28;20006;-73
2022/08/14 07:57:34;;;;;;;;;;;;;;;25.42;100.00;100725.44;5028464;28;19919;-73
2022/08/14 08:00:00;;;;;;;;;;;;;;;25.85;95.87;100685.25;5044720;28;19912;-73
2022/08/14 08:02:29;;;;;;;;;;;;;;;25.24;99.60;100695.81;5044637;28;19963;-73
2022/08/14 08:04:54;;;;;;;;;;;;;;;25.61;100.00;100785.97;5028354;28;19920;-74
2022/08/14 08:07:20;;;;;;;;;;;;;;;26.02;95.89;100701.50;5044441;28;20375;-73
2022/08/14 08:09:53;;;;;;;;;;;;;;;26.66;93.91;100740.59;5045736;28;19917;-73
2022/08/14 08:12:19;;;;;;;;;;;;;;;27.00;90.93;100721.78;5044312;28;19958;-73
2022/08/14 08:14:46;;;;;;;;;;;;;;;27.19;85.08;100628.06;5045904;28;19962;-74
2022/08/14 08:17:11;;;;;;;;;;;;;;;27.37;82.95;100622.03;5045430;28;19913;-74
2022/08/14 08:19:38;;;;;;;;;;;;;;;27.56;80.84;100586.63;5044316;28;19908;-74
2022/08/14 08:22:03;;;;;;;;;;;;;;;26.95;81.77;100566.47;5044672;28;19916;-74
2022/08/14 08:24:28;;;;;;;;;;;;;;;26.44;84.46;100571.09;5042239;28;19913;-73
2022/08/14 08:26:54;;;;;;;;;;;;;;;26.44;84.49;100599.28;5025317;28;20374;-73
2022/08/14 08:29:20;;;;;;;;;;;;;;;27.26;83.89;100686.19;5010694;28;20426;-74
2022/08/14 08:31:49;;;;;;;;;;;;;;;27.53;80.86;100639.25;5043827;28;19920;-74
2022/08/14 08:34:15;;;;;;;;;;;;;;;27.63;78.01;100576.16;5045102;28;19963;-75
2022/08/14 08:36:40;;;;;;;;;;;;;;;27.75;78.20;100600.53;5027823;28;20378;-74
2022/08/14 08:39:06;;;;;;;;;;;;;;;28.02;76.68;100594.66;5027107;28;19919;-74
2022/08/14 08:41:45;;;;;;;;;;;;;;;27.05;78.26;100518.22;5024842;28;20312;-74
2022/08/14 08:44:11;;;;;;;;;;;;;;;26.78;81.66;100582.34;5009330;28;19917;-74
2022/08/14 08:46:36;;;;;;;;;;;;;;;26.93;81.53;100600.69;5043779;28;20008;-74
2022/08/14 08:49:02;;;;;;;;;;;;;;;27.22;82.57;100666.72;5036273;28;19960;-73
2022/08/14 08:51:29;;;;;;;;;;;;;;;27.35;79.29;100597.63;5026055;28;20354;-74
2022/08/14 08:53:58;;;;;;;;;;;;;;;27.32;81.40;100641.22;5023707;28;20439;-74
2022/08/14 08:56:33;;;;;;;;;;;;;;;27.20;80.10;100583.97;5043224;28;19921;-74
2022/08/14 08:58:59;;;;;;;;;;;;;;;27.20;80.43;100600.41;5045166;28;20127;-74
2022/08/14 09:01:29;;;;;;;;;;;;;;;26.61;77.60;100443.00;5042549;28;19958;-74
2022/08/14 09:04:04;;;;;;;;;;;;;;;26.07;79.59;100455.31;5039305;28;20336;-74
2022/08/14 09:06:30;;;;;;;;;;;;;;;26.10;82.07;100528.63;5008704;28;20220;-74
2022/08/14 09:08:55;;;;;;;;;;;;;;;26.30;82.41;100566.16;5033831;28;20274;-74
2022/08/14 09:11:23;;;;;;;;;;;;;;;26.17;82.15;100538.50;5018094;28;20464;-73
2022/08/14 09:13:52;;;;;;;;;;;;;;;26.42;80.52;100534.97;5016503;28;20270;-74
2022/08/14 09:16:21;;;;;;;;;;;;;;;26.83;79.12;100571.41;5019745;28;19917;-74
2022/08/14 09:18:46;;;;;;;;;;;;;;;26.84;76.52;100501.84;5018760;28;19919;-74
2022/08/14 09:21:11;;;;;;;;;;;;;;;27.12;75.47;100510.53;5016677;28;19920;-74
2022/08/14 09:23:37;;;;;;;;;;;;;;;27.19;75.66;100522.00;5019931;28;19908;-74
2022/08/14 09:26:02;;;;;;;;;;;;;;;27.32;74.02;100498.69;5017187;28;20432;-74
2022/08/14 09:28:27;;;;;;;;;;;;;;;27.85;72.71;100542.91;5019288;28;20211;-74
2022/08/14 09:30:55;;;;;;;;;;;;;;;27.96;71.51;100516.22;5017239;28;19921;-74
2022/08/14 09:33:32;;;;;;;;;;;;;;;28.25;70.07;100496.25;5018769;28;20531;-73
2022/08/14 09:36:16;;;;;;;;;;;;;;;28.10;70.27;100498.03;5000563;28;19968;-74
2022/08/14 09:39:05;;;;;;;;;;;;;;;28.18;69.60;100483.69;5028702;28;20423;-74
2022/08/14 09:41:44;;;;;;;;;;;;;;;28.04;67.44;100375.69;5044076;28;19920;-74
2022/08/14 09:44:26;;;;;;;;;;;;;;;28.11;67.57;100389.88;5035119;28;19917;-74
2022/08/14 09:46:53;;;;;;;;;;;;;;;28.06;68.66;100442.06;5026598;28;20361;-74
2022/08/14 09:49:28;;;;;;;;;;;;;;;28.16;68.09;100452.94;5042405;28;20255;-74
2022/08/14 09:52:01;;;;;;;;;;;;;;;27.95;67.05;100372.72;5044447;28;20408;-74
2022/08/14 09:54:34;;;;;;;;;;;;;;;28.27;68.26;100472.91;5042738;28;20376;-74
2022/08/14 09:57:01;;;;;;;;;;;;;;;28.41;66.76;100424.47;5064852;23;19934;-91
2022/08/14 09:59:28;;;;;;;;;;;;;;;28.57;65.08;100385.91;5052938;28;19920;-90
2022/08/14 10:01:55;;;;;;;;;;;;;;;28.61;65.04;100397.91;5045291;28;19961;-91
2022/08/14 10:04:23;;;;;;;;;;;;;;;28.74;64.83;100402.72;5041589;28;19912;-91
2022/08/14 10:06:49;;;;;;;;;;;;;;;28.11;62.63;100175.84;5058509;28;19946;-91
2022/08/14 10:09:14;;;;;;;;;;;;;;;28.05;63.73;100248.38;5032155;28;19975;-91
2022/08/14 10:11:52;;;;;;;;;;;;;;;28.21;63.28;100268.22;5059611;28;20430;-89
2022/08/14 10:14:18;;;;;;;;;;;;;;;28.29;61.04;100162.47;5065039;28;20091;-87
2022/08/14 10:16:44;;;;;;;;;;;;;;;28.17;60.55;100125.31;5057402;28;19912;-89
2022/08/14 10:19:12;;;;;;;;;;;;;;;29.04;62.22;100407.03;5056423;28;19919;-88
2022/08/14 10:21:38;;;;;;;;;;;;;;;29.64;61.14;100402.94;5041928;28;19912;-89
2022/08/14 10:24:08;;;;;;;;;;;;;;;29.65;59.73;100322.06;5057351;28;20577;-88
2022/08/14 10:26:33;;;;;;;;;;;;;;;28.57;59.44;100111.31;5058096;28;20000;-89
2022/08/14 10:29:06;;;;;;;;;;;;;;;28.16;58.77;100016.63;5057864;28;19972;-91
2022/08/14 10:31:33;;;;;;;;;;;;;;;28.59;60.90;100218.94;5049236;28;20261;-90
2022/08/14 10:34:01;;;;;;;;;;;;;;;28.05;61.31;100159.75;5057908;28;19913;-91
2022/08/14 10:36:30;;;;;;;;;;;;;;;28.36;62.42;100269.97;5055247;28;19959;-86
2022/08/14 10:38:57;;;;;;;;;;;;;;;27.96;62.24;100189.78;5057301;28;19909;-86
2022/08/14 10:41:32;;;;;;;;;;;;;;;28.25;61.53;100214.38;5066374;28;20003;-90
2022/08/14 10:44:12;;;;;;;;;;;;;;;28.78;60.25;100243.66;5068004;28;19916;-91
2022/08/14 10:46:40;;;;;;;;;;;;;;;28.56;61.66;100280.72;5051683;28;19935;-91
2022/08/14 10:49:08;;;;;;;;;;;;;;;27.98;59.89;100042.16;5059934;28;20090;-92
2022/08/14 10:51:33;;;;;;;;;;;;;;;28.03;61.68;100200.41;5071218;28;19940;-93
2022/08/14 10:54:04;;;;;;;;;;;;;;;28.07;61.96;100218.69;5045364;28;19909;-92
2022/08/14 10:56:32;;;;;;;;;;;;;;;28.72;61.30;100286.03;5049920;28;19919;-92
2022/08/14 10:59:02;;;;;;;;;;;;;;;28.99;60.20;100219.44;5056144;28;20436;-91
2022/08/14 11:01:31;;;;;;;;;;;;;;;28.47;61.53;100237.75;5039153;28;19920;-91
2022/08/14 11:03:57;;;;;;;;;;;;;;;28.56;59.05;100096.75;5058786;28;19935;-90
2022/08/14 11:06:23;;;;;;;;;;;;;;;29.01;58.40;100156.78;5061254;28;20384;-92
2022/08/14 11:08:48;;;;;;;;;;;;;;;29.04;58.44;100165.22;5065659;28;19999;-90
2022/08/14 11:11:14;;;;;;;;;;;;;;;28.62;56.41;99933.56;5045705;28;19917;-91
2022/08/14 11:13:42;;;;;;;;;;;;;;;28.49;56.98;99989.25;5038432;28;19908;-92
2022/08/14 11:16:08;;;;;;;;;;;;;;;28.78;57.68;100112.63;5052379;28;19921;-92
2022/08/14 11:18:35;;;;;;;;;;;;;;;28.62;57.11;100045.34;5042915;28;19922;-91
2022/08/14 11:21:00;;;;;;;;;;;;;;;28.24;58.16;100020.66;5067861;28;19917;-90
2022/08/14 11:23:28;;;;;;;;;;;;;;;28.54;59.06;100150.34;5048813;28;20424;-91
2022/08/14 11:25:55;;;;;;;;;;;;;;;28.90;57.33;100090.19;5058185;28;19921;-90
2022/08/14 11:28:30;;;;;;;;;;;;;;;30.09;55.49;100197.72;5070837;28;19917;-90
2022/08/14 11:30:56;;;;;;;;;;;;;;;29.73;54.34;100035.31;5056700;28;19919;-91
2022/08/14 11:33:23;;;;;;;;;;;;;;;29.78;56.21;100189.28;5056876;28;19908;-91
2022/08/14 11:35:48;;;;;;;;;;;;;;;29.94;55.61;100169.69;5046720;28;19913;-91
2022/08/14 11:38:14;;;;;;;;;;;;;;;29.63;55.00;100063.00;5045547;28;20002;-91
2022/08/14 11:40:39;;;;;;;;;;;;;;;30.36;53.59;100104.41;5050191;28;19935;-90
2022/08/14 11:43:06;;;;;;;;;;;;;;;31.11;51.76;100106.44;5061076;28;19909;-91
2022/08/14 11:45:33;;;;;;;;;;;;;;;30.47;54.14;100127.84;5049210;28;19919;-92
2022/08/14 11:47:58;;;;;;;;;;;;;;;29.56;53.24;99862.66;5054751;28;19940;-91
2022/08/14 11:50:29;;;;;;;;;;;;;;;29.49;53.18;99888.97;5056547;28;19920;-92
2022/08/14 11:52:56;;;;;;;;;;;;;;;29.59;54.13;99969.28;5071729;28;19912;-91
2022/08/14 11:55:23;;;;;;;;;;;;;;;28.92;53.45;99804.19;5034460;28;19919;-91
2022/08/14 11:57:57;;;;;;;;;;;;;;;29.30;53.79;99914.66;5048685;28;19917;-90
2022/08/14 12:00:23;;;;;;;;;;;;;;;29.51;54.80;100062.72;5051183;28;19916;-92
2022/08/14 12:02:49;;;;;;;;;;;;;;;29.40;54.26;99965.84;5051857;28;19916;-91
2022/08/14 12:05:15;;;;;;;;;;;;;;;29.60;54.97;100077.38;5052328;28;20381;-91
2022/08/14 12:07:47;;;;;;;;;;;;;;;29.46;55.39;100061.69;5042842;28;19913;-91
2022/08/14 12:10:16;;;;;;;;;;;;;;;29.88;53.97;100037.72;5036121;28;19917;-90
2022/08/14 12:12:41;;;;;;;;;;;;;;;29.35;55.00;99998.97;5051273;28;19931;-91
2022/08/14 12:15:07;;;;;;;;;;;;;;;29.84;55.33;100148.72;5052020;28;20633;-90
2022/08/14 12:17:42;;;;;;;;;;;;;;;29.97;53.31;99952.53;5053601;28;19913;-90
2022/08/14 12:20:08;;;;;;;;;;;;;;;29.20;53.91;99879.16;5052487;28;19996;-90
2022/08/14 12:22:38;;;;;;;;;;;;;;;29.77;53.60;99981.31;5038852;28;19948;-90
2022/08/14 12:25:06;;;;;;;;;;;;;;;29.95;52.93;99952.00;5053464;28;20281;-91
2022/08/14 12:27:34;;;;;;;;;;;;;;;30.24;51.46;99910.28;5068833;28;19962;-91
2022/08/14 12:29:59;;;;;;;;;;;;;;;30.55;50.81;99923.28;5036778;28;19913;-91
2022/08/14 12:32:25;;;;;;;;;;;;;;;29.80;51.51;99803.81;5035465;28;19915;-90
2022/08/14 12:34:51;;;;;;;;;;;;;;;29.55;54.34;100004.03;5050474;28;20428;-91
2022/08/14 12:37:16;;;;;;;;;;;;;;;30.17;54.82;100121.84;5043597;28;19935;-90
2022/08/14 12:39:42;;;;;;;;;;;;;;;30.09;54.29;100073.06;5067687;28;19920;-91
2022/08/14 12:42:07;;;;;;;;;;;;;;;30.38;54.05;100091.16;5043693;28;19913;-92
2022/08/14 12:44:34;;;;;;;;;;;;;;;30.23;54.53;100089.53;5065839;28;20012;-90